sensor_id;sensor_type;location;lat;lon;timestamp;pressure;altitude;pressure_sealevel;temperature
34310;BMP280;61664;48.112;11.662;2023-05-10T00:02:08;94925.97;;;16.23
34310;BMP280;61664;48.112;11.662;2023-05-10T00:04:35;94909.84;;;16.18
34310;BMP280;61664;48.112;11.662;2023-05-10T00:07:01;94923.50;;;16.25
34310;BMP280;61664;48.112;11.662;2023-05-10T00:09:28;94921.59;;;16.20
34310;BMP280;61664;48.112;11.662;2023-05-10T00:11:55;94928.47;;;16.21
34310;BMP280;61664;48.112;11.662;2023-05-10T00:14:24;94929.94;;;16.22
34310;BMP280;61664;48.112;11.662;2023-05-10T00:16:52;94913.28;;;16.18
34310;BMP280;61664;48.112;11.662;2023-05-10T00:19:19;94915.97;;;16.18
34310;BMP280;61664;48.112;11.662;2023-05-10T00:21:46;94922.78;;;16.25
34310;BMP280;61664;48.112;11.662;2023-05-10T00:24:13;94924.53;;;16.22
34310;BMP280;61664;48.112;11.662;2023-05-10T00:26:40;94916.47;;;16.22
34310;BMP280;61664;48.112;11.662;2023-05-10T00:29:08;94907.69;;;16.16
34310;BMP280;61664;48.112;11.662;2023-05-10T00:31:35;94904.69;;;16.20
34310;BMP280;61664;48.112;11.662;2023-05-10T00:34:02;94894.75;;;16.09
34310;BMP280;61664;48.112;11.662;2023-05-10T00:36:29;94876.25;;;16.00
34310;BMP280;61664;48.112;11.662;2023-05-10T00:38:57;94898.88;;;16.16
34310;BMP280;61664;48.112;11.662;2023-05-10T00:41:24;94906.19;;;16.21
34310;BMP280;61664;48.112;11.662;2023-05-10T00:43:51;94912.31;;;16.21
34310;BMP280;61664;48.112;11.662;2023-05-10T00:46:18;94908.19;;;16.15
34310;BMP280;61664;48.112;11.662;2023-05-10T00:48:45;94910.88;;;16.15
34310;BMP280;61664;48.112;11.662;2023-05-10T00:51:13;94910.88;;;16.15
34310;BMP280;61664;48.112;11.662;2023-05-10T00:53:41;94896.00;;;16.08
34310;BMP280;61664;48.112;11.662;2023-05-10T00:56:08;94909.94;;;16.12
34310;BMP280;61664;48.112;11.662;2023-05-10T00:58:35;94898.25;;;16.04
34310;BMP280;61664;48.112;11.662;2023-05-10T01:01:02;94908.22;;;16.09
34310;BMP280;61664;48.112;11.662;2023-05-10T01:03:31;94907.00;;;16.10
34310;BMP280;61664;48.112;11.662;2023-05-10T01:05:58;94913.88;;;16.11
34310;BMP280;61664;48.112;11.662;2023-05-10T01:08:26;94905.28;;;16.13
34310;BMP280;61664;48.112;11.662;2023-05-10T01:10:54;94899.16;;;16.12
34310;BMP280;61664;48.112;11.662;2023-05-10T01:13:42;94908.91;;;16.15
34310;BMP280;61664;48.112;11.662;2023-05-10T01:16:09;94883.75;;;16.07
34310;BMP280;61664;48.112;11.662;2023-05-10T01:18:40;94903.22;;;16.19
34310;BMP280;61664;48.112;11.662;2023-05-10T01:24:17;94900.59;;;16.13
34310;BMP280;61664;48.112;11.662;2023-05-10T01:39:32;94886.38;;;15.94
34310;BMP280;61664;48.112;11.662;2023-05-10T01:42:20;94891.75;;;15.94
34310;BMP280;61664;48.112;11.662;2023-05-10T01:45:30;94907.34;;;16.01
34310;BMP280;61664;48.112;11.662;2023-05-10T01:48:11;94900.63;;;15.89
34310;BMP280;61664;48.112;11.662;2023-05-10T01:50:42;94906.22;;;15.91
34310;BMP280;61664;48.112;11.662;2023-05-10T01:53:11;94883.59;;;15.75
34310;BMP280;61664;48.112;11.662;2023-05-10T01:55:46;94898.50;;;15.82
34310;BMP280;61664;48.112;11.662;2023-05-10T01:58:23;94895.09;;;15.75
34310;BMP280;61664;48.112;11.662;2023-05-10T02:00:52;94910.50;;;15.81
34310;BMP280;61664;48.112;11.662;2023-05-10T02:03:24;94909.53;;;15.78
34310;BMP280;61664;48.112;11.662;2023-05-10T02:05:55;94900.06;;;15.71
34310;BMP280;61664;48.112;11.662;2023-05-10T02:08:24;94907.56;;;15.79
34310;BMP280;61664;48.112;11.662;2023-05-10T02:10:55;94904.31;;;15.86
34310;BMP280;61664;48.112;11.662;2023-05-10T02:13:25;94903.31;;;15.89
34310;BMP280;61664;48.112;11.662;2023-05-10T02:15:54;94909.69;;;15.86
34310;BMP280;61664;48.112;11.662;2023-05-10T02:18:23;94897.91;;;15.89
34310;BMP280;61664;48.112;11.662;2023-05-10T02:20:54;94894.69;;;15.90
34310;BMP280;61664;48.112;11.662;2023-05-10T02:23:23;94904.94;;;15.97
34310;BMP280;61664;48.112;11.662;2023-05-10T02:25:53;94889.06;;;15.94
34310;BMP280;61664;48.112;11.662;2023-05-10T02:28:23;94906.13;;;16.02
34310;BMP280;61664;48.112;11.662;2023-05-10T02:30:51;94891.75;;;15.94
34310;BMP280;61664;48.112;11.662;2023-05-10T02:33:21;94875.75;;;15.77
34310;BMP280;61664;48.112;11.662;2023-05-10T02:35:50;94897.91;;;15.89
34310;BMP280;61664;48.112;11.662;2023-05-10T02:38:22;94888.94;;;15.81
34310;BMP280;61664;48.112;11.662;2023-05-10T02:40:51;94877.94;;;15.79
34310;BMP280;61664;48.112;11.662;2023-05-10T02:43:22;94868.72;;;15.68
34310;BMP280;61664;48.112;11.662;2023-05-10T02:45:49;94888.25;;;15.74
34310;BMP280;61664;48.112;11.662;2023-05-10T02:48:17;94896.28;;;15.80
34310;BMP280;61664;48.112;11.662;2023-05-10T02:50:45;94890.41;;;15.82
34310;BMP280;61664;48.112;11.662;2023-05-10T02:53:22;94900.16;;;15.85
34310;BMP280;61664;48.112;11.662;2023-05-10T02:55:57;94898.66;;;15.89
34310;BMP280;61664;48.112;11.662;2023-05-10T02:58:25;94898.41;;;15.87
34310;BMP280;61664;48.112;11.662;2023-05-10T03:00:53;94898.66;;;15.89
34310;BMP280;61664;48.112;11.662;2023-05-10T03:03:20;94907.41;;;15.95
34310;BMP280;61664;48.112;11.662;2023-05-10T03:05:47;94907.19;;;15.93
34310;BMP280;61664;48.112;11.662;2023-05-10T03:08:14;94904.03;;;15.89
34310;BMP280;61664;48.112;11.662;2023-05-10T03:17:23;94920.47;;;15.86
34310;BMP280;61664;48.112;11.662;2023-05-10T03:20:33;94919.31;;;15.81
34310;BMP280;61664;48.112;11.662;2023-05-10T03:26:08;94912.06;;;15.70
34310;BMP280;61664;48.112;11.662;2023-05-10T03:28:36;94925.69;;;15.78
34310;BMP280;61664;48.112;11.662;2023-05-10T03:31:05;94930.09;;;15.81
34310;BMP280;61664;48.112;11.662;2023-05-10T03:33:32;94922.53;;;15.74
34310;BMP280;61664;48.112;11.662;2023-05-10T03:35:59;94922.34;;;15.72
34310;BMP280;61664;48.112;11.662;2023-05-10T03:38:26;94928.88;;;15.77
34310;BMP280;61664;48.112;11.662;2023-05-10T03:40:56;94936.47;;;15.78
34310;BMP280;61664;48.112;11.662;2023-05-10T03:43:23;94926.25;;;15.71
34310;BMP280;61664;48.112;11.662;2023-05-10T03:45:50;94927.44;;;15.75
34310;BMP280;61664;48.112;11.662;2023-05-10T03:48:17;94930.84;;;15.76
34310;BMP280;61664;48.112;11.662;2023-05-10T03:50:43;94936.00;;;15.74
34310;BMP280;61664;48.112;11.662;2023-05-10T03:53:10;94932.59;;;15.73
34310;BMP280;61664;48.112;11.662;2023-05-10T03:55:37;94925.78;;;15.67
34310;BMP280;61664;48.112;11.662;2023-05-10T03:58:04;94944.13;;;15.68
34310;BMP280;61664;48.112;11.662;2023-05-10T04:00:31;94936.56;;;15.67
34310;BMP280;61664;48.112;11.662;2023-05-10T04:02:59;94944.63;;;15.72
34310;BMP280;61664;48.112;11.662;2023-05-10T04:05:26;94938.78;;;15.63
34310;BMP280;61664;48.112;11.662;2023-05-10T04:07:52;94953.91;;;15.71
34310;BMP280;61664;48.112;11.662;2023-05-10T04:10:19;94950.72;;;15.73
34310;BMP280;61664;48.112;11.662;2023-05-10T04:12:47;94943.16;;;15.71
34310;BMP280;61664;48.112;11.662;2023-05-10T04:15:14;94952.63;;;15.78
34310;BMP280;61664;48.112;11.662;2023-05-10T04:17:41;94950.91;;;15.81
34310;BMP280;61664;48.112;11.662;2023-05-10T04:20:09;94941.31;;;15.80
34310;BMP280;61664;48.112;11.662;2023-05-10T04:22:36;94956.44;;;15.88
34310;BMP280;61664;48.112;11.662;2023-05-10T04:25:03;94953.75;;;15.88
34310;BMP280;61664;48.112;11.662;2023-05-10T04:27:31;94954.03;;;15.85
34310;BMP280;61664;48.112;11.662;2023-05-10T04:29:58;94959.41;;;15.85
34310;BMP280;61664;48.112;11.662;2023-05-10T04:32:25;94955.53;;;15.80
34310;BMP280;61664;48.112;11.662;2023-05-10T04:34:52;94960.19;;;15.80
34310;BMP280;61664;48.112;11.662;2023-05-10T04:37:19;94964.13;;;15.79
34310;BMP280;61664;48.112;11.662;2023-05-10T04:39:47;94962.16;;;15.79
34310;BMP280;61664;48.112;11.662;2023-05-10T04:42:14;94962.41;;;15.81
34310;BMP280;61664;48.112;11.662;2023-05-10T04:44:41;94948.25;;;15.75
34310;BMP280;61664;48.112;11.662;2023-05-10T04:47:09;94957.00;;;15.81
34310;BMP280;61664;48.112;11.662;2023-05-10T04:49:38;94958.00;;;15.78
34310;BMP280;61664;48.112;11.662;2023-05-10T04:52:05;94954.78;;;15.80
34310;BMP280;61664;48.112;11.662;2023-05-10T04:54:32;94957.75;;;15.82
34310;BMP280;61664;48.112;11.662;2023-05-10T04:56:58;94971.44;;;15.84
34310;BMP280;61664;48.112;11.662;2023-05-10T04:59:25;94959.50;;;15.73
34310;BMP280;61664;48.112;11.662;2023-05-10T05:01:53;94972.44;;;15.81
34310;BMP280;61664;48.112;11.662;2023-05-10T05:04:20;94966.59;;;15.77
34310;BMP280;61664;48.112;11.662;2023-05-10T05:06:46;94980.28;;;15.79
34310;BMP280;61664;48.112;11.662;2023-05-10T05:09:13;94981.28;;;15.75
34310;BMP280;61664;48.112;11.662;2023-05-10T05:11:40;94976.00;;;15.64
34310;BMP280;61664;48.112;11.662;2023-05-10T05:14:07;94977.25;;;15.58
34310;BMP280;61664;48.112;11.662;2023-05-10T05:16:55;94983.88;;;15.62
34310;BMP280;61664;48.112;11.662;2023-05-10T05:19:23;94990.91;;;15.65
34310;BMP280;61664;48.112;11.662;2023-05-10T05:21:50;94965.56;;;15.50
34310;BMP280;61664;48.112;11.662;2023-05-10T05:24:16;94973.38;;;15.53
34310;BMP280;61664;48.112;11.662;2023-05-10T05:26:43;94991.25;;;15.56
34310;BMP280;61664;48.112;11.662;2023-05-10T05:29:10;94978.63;;;15.40
34310;BMP280;61664;48.112;11.662;2023-05-10T05:31:37;95007.47;;;15.45
34310;BMP280;61664;48.112;11.662;2023-05-10T05:34:04;95015.31;;;15.43
34310;BMP280;61664;48.112;11.662;2023-05-10T05:36:31;94989.47;;;15.29
34310;BMP280;61664;48.112;11.662;2023-05-10T05:39:01;95015.63;;;15.34
34310;BMP280;61664;48.112;11.662;2023-05-10T05:41:28;95001.72;;;15.24
34310;BMP280;61664;48.112;11.662;2023-05-10T05:43:55;94991.53;;;15.12
34310;BMP280;61664;48.112;11.662;2023-05-10T05:46:22;95019.13;;;15.23
34310;BMP280;61664;48.112;11.662;2023-05-10T05:48:49;95027.63;;;15.27
34310;BMP280;61664;48.112;11.662;2023-05-10T05:51:16;95015.97;;;15.14
34310;BMP280;61664;48.112;11.662;2023-05-10T05:53:42;95035.47;;;15.25
34310;BMP280;61664;48.112;11.662;2023-05-10T05:56:09;95028.63;;;15.19
34310;BMP280;61664;48.112;11.662;2023-05-10T05:58:54;95023.84;;;15.06
34310;BMP280;61664;48.112;11.662;2023-05-10T06:01:21;95025.31;;;15.01
34310;BMP280;61664;48.112;11.662;2023-05-10T06:03:48;95041.44;;;15.01
34310;BMP280;61664;48.112;11.662;2023-05-10T06:06:18;95018.31;;;14.82
34310;BMP280;61664;48.112;11.662;2023-05-10T06:08:45;95037.09;;;14.93
34310;BMP280;61664;48.112;11.662;2023-05-10T06:11:12;95015.09;;;14.83
34310;BMP280;61664;48.112;11.662;2023-05-10T06:13:39;95049.75;;;15.03
34310;BMP280;61664;48.112;11.662;2023-05-10T06:16:06;95049.00;;;15.09
34310;BMP280;61664;48.112;11.662;2023-05-10T06:18:33;95044.59;;;15.11
34310;BMP280;61664;48.112;11.662;2023-05-10T06:21:01;95053.59;;;15.19
34310;BMP280;61664;48.112;11.662;2023-05-10T06:23:27;95059.44;;;15.29
34310;BMP280;61664;48.112;11.662;2023-05-10T06:25:55;95065.75;;;15.37
34310;BMP280;61664;48.112;11.662;2023-05-10T06:28:22;95062.78;;;15.41
34310;BMP280;61664;48.112;11.662;2023-05-10T06:30:49;95066.69;;;15.45
34310;BMP280;61664;48.112;11.662;2023-05-10T06:33:16;95065.72;;;15.43
34310;BMP280;61664;48.112;11.662;2023-05-10T06:35:42;95084.28;;;15.52
34310;BMP280;61664;48.112;11.662;2023-05-10T06:38:09;95074.47;;;15.54
34310;BMP280;61664;48.112;11.662;2023-05-10T06:40:36;95080.56;;;15.60
34310;BMP280;61664;48.112;11.662;2023-05-10T06:43:03;95078.13;;;15.62
34310;BMP280;61664;48.112;11.662;2023-05-10T06:45:30;95048.84;;;15.42
34310;BMP280;61664;48.112;11.662;2023-05-10T06:47:57;95053.22;;;15.51
34310;BMP280;61664;48.112;11.662;2023-05-10T06:50:24;95086.06;;;15.79
34310;BMP280;61664;48.112;11.662;2023-05-10T06:52:51;95072.59;;;15.79
34310;BMP280;61664;48.112;11.662;2023-05-10T06:55:19;95070.91;;;15.76
34310;BMP280;61664;48.112;11.662;2023-05-10T06:57:47;95066.75;;;15.75
34310;BMP280;61664;48.112;11.662;2023-05-10T07:00:14;95074.00;;;15.86
34310;BMP280;61664;48.112;11.662;2023-05-10T07:02:42;95084.69;;;16.02
34310;BMP280;61664;48.112;11.662;2023-05-10T07:05:09;95083.69;;;16.05
34310;BMP280;61664;48.112;11.662;2023-05-10T07:07:36;95085.25;;;16.20
34310;BMP280;61664;48.112;11.662;2023-05-10T07:10:03;95082.94;;;16.35
34310;BMP280;61664;48.112;11.662;2023-05-10T07:12:30;95079.53;;;16.29
34310;BMP280;61664;48.112;11.662;2023-05-10T07:14:58;95088.38;;;16.29
34310;BMP280;61664;48.112;11.662;2023-05-10T07:17:24;95098.66;;;16.31
34310;BMP280;61664;48.112;11.662;2023-05-10T07:19:52;95084.06;;;16.21
34310;BMP280;61664;48.112;11.662;2023-05-10T07:22:19;95096.00;;;16.25
34310;BMP280;61664;48.112;11.662;2023-05-10T07:24:45;95073.34;;;16.09
34310;BMP280;61664;48.112;11.662;2023-05-10T07:27:12;95078.00;;;16.09
34310;BMP280;61664;48.112;11.662;2023-05-10T07:29:39;95106.34;;;16.21
34310;BMP280;61664;48.112;11.662;2023-05-10T07:32:06;95096.50;;;16.24
34310;BMP280;61664;48.112;11.662;2023-05-10T07:34:46;95109.84;;;16.40
34310;BMP280;61664;48.112;11.662;2023-05-10T07:37:13;95101.66;;;16.52
34310;BMP280;61664;48.112;11.662;2023-05-10T07:39:40;95088.75;;;16.69
34310;BMP280;61664;48.112;11.662;2023-05-10T07:42:08;95078.78;;;16.82
34310;BMP280;61664;48.112;11.662;2023-05-10T07:44:37;95097.34;;;17.10
34310;BMP280;61664;48.112;11.662;2023-05-10T07:47:04;95063.34;;;17.02
34310;BMP280;61664;48.112;11.662;2023-05-10T07:49:33;95091.31;;;17.23
34310;BMP280;61664;48.112;11.662;2023-05-10T07:52:00;95097.22;;;17.21
34310;BMP280;61664;48.112;11.662;2023-05-10T07:54:27;95103.94;;;17.34
34310;BMP280;61664;48.112;11.662;2023-05-10T07:56:54;95093.19;;;17.47
34310;BMP280;61664;48.112;11.662;2023-05-10T07:59:21;95104.22;;;17.68
34310;BMP280;61664;48.112;11.662;2023-05-10T08:01:48;95092.84;;;17.88
34310;BMP280;61664;48.112;11.662;2023-05-10T08:04:14;95093.31;;;18.05
34310;BMP280;61664;48.112;11.662;2023-05-10T08:06:42;95090.38;;;18.22
34310;BMP280;61664;48.112;11.662;2023-05-10T08:09:09;95095.28;;;18.37
34310;BMP280;61664;48.112;11.662;2023-05-10T08:11:36;95105.53;;;18.38
34310;BMP280;61664;48.112;11.662;2023-05-10T08:14:03;95099.31;;;18.30
34310;BMP280;61664;48.112;11.662;2023-05-10T08:16:30;95093.91;;;18.30
34310;BMP280;61664;48.112;11.662;2023-05-10T08:18:57;95089.97;;;18.31
34310;BMP280;61664;48.112;11.662;2023-05-10T08:21:24;95101.84;;;18.54
34310;BMP280;61664;48.112;11.662;2023-05-10T08:23:51;95092.97;;;18.67
34310;BMP280;61664;48.112;11.662;2023-05-10T08:26:18;95111.31;;;18.87
34310;BMP280;61664;48.112;11.662;2023-05-10T08:28:45;95101.63;;;18.92
34310;BMP280;61664;48.112;11.662;2023-05-10T08:31:12;95104.13;;;18.90
34310;BMP280;61664;48.112;11.662;2023-05-10T08:33:39;95084.56;;;18.70
34310;BMP280;61664;48.112;11.662;2023-05-10T08:36:08;95092.25;;;18.93
34310;BMP280;61664;48.112;11.662;2023-05-10T08:38:35;95108.06;;;19.15
34310;BMP280;61664;48.112;11.662;2023-05-10T08:41:05;95111.44;;;19.29
34310;BMP280;61664;48.112;11.662;2023-05-10T08:43:33;95107.41;;;19.22
34310;BMP280;61664;48.112;11.662;2023-05-10T08:46:04;95098.09;;;19.10
34310;BMP280;61664;48.112;11.662;2023-05-10T08:48:34;95106.22;;;18.97
34310;BMP280;61664;48.112;11.662;2023-05-10T08:51:03;95109.13;;;18.86
34310;BMP280;61664;48.112;11.662;2023-05-10T08:53:33;95116.94;;;18.76
34310;BMP280;61664;48.112;11.662;2023-05-10T08:56:02;95117.22;;;18.59
34310;BMP280;61664;48.112;11.662;2023-05-10T08:58:29;95120.44;;;18.45
34310;BMP280;61664;48.112;11.662;2023-05-10T09:00:59;95110.94;;;18.38
34310;BMP280;61664;48.112;11.662;2023-05-10T09:03:26;95107.34;;;18.36
34310;BMP280;61664;48.112;11.662;2023-05-10T09:05:53;95115.22;;;18.47
34310;BMP280;61664;48.112;11.662;2023-05-10T09:08:24;95120.63;;;18.47
34310;BMP280;61664;48.112;11.662;2023-05-10T09:10:55;95123.34;;;18.47
34310;BMP280;61664;48.112;11.662;2023-05-10T09:13:23;95117.59;;;18.37
34310;BMP280;61664;48.112;11.662;2023-05-10T09:15:51;95110.72;;;18.23
34310;BMP280;61664;48.112;11.662;2023-05-10T09:18:19;95114.47;;;18.20
34310;BMP280;61664;48.112;11.662;2023-05-10T09:20:47;95112.00;;;18.22
34310;BMP280;61664;48.112;11.662;2023-05-10T09:23:14;95111.59;;;18.31
34310;BMP280;61664;48.112;11.662;2023-05-10T09:25:43;95109.81;;;18.33
34310;BMP280;61664;48.112;11.662;2023-05-10T09:28:11;95118.06;;;18.54
34310;BMP280;61664;48.112;11.662;2023-05-10T09:30:38;95114.25;;;19.36
34310;BMP280;61664;48.112;11.662;2023-05-10T09:33:05;95113.72;;;20.62
34310;BMP280;61664;48.112;11.662;2023-05-10T09:35:33;95116.03;;;21.45
34310;BMP280;61664;48.112;11.662;2023-05-10T09:38:03;95114.47;;;21.96
34310;BMP280;61664;48.112;11.662;2023-05-10T09:40:32;95113.91;;;22.28
34310;BMP280;61664;48.112;11.662;2023-05-10T09:43:03;95111.91;;;21.98
34310;BMP280;61664;48.112;11.662;2023-05-10T09:45:33;95121.66;;;21.48
34310;BMP280;61664;48.112;11.662;2023-05-10T09:48:04;95120.59;;;20.99
34310;BMP280;61664;48.112;11.662;2023-05-10T09:50:31;95122.03;;;20.64
34310;BMP280;61664;48.112;11.662;2023-05-10T09:53:02;95120.09;;;20.44
34310;BMP280;61664;48.112;11.662;2023-05-10T09:58:02;95117.47;;;20.31
34310;BMP280;61664;48.112;11.662;2023-05-10T10:00:36;95117.38;;;20.73
34310;BMP280;61664;48.112;11.662;2023-05-10T10:03:23;95111.81;;;21.37
34310;BMP280;61664;48.112;11.662;2023-05-10T10:05:51;95101.06;;;21.82
34310;BMP280;61664;48.112;11.662;2023-05-10T10:08:19;95108.28;;;22.18
34310;BMP280;61664;48.112;11.662;2023-05-10T10:10:47;95106.66;;;22.22
34310;BMP280;61664;48.112;11.662;2023-05-10T10:13:14;95102.50;;;22.21
34310;BMP280;61664;48.112;11.662;2023-05-10T10:15:42;95109.00;;;22.26
34310;BMP280;61664;48.112;11.662;2023-05-10T10:18:13;95094.53;;;22.16
34310;BMP280;61664;48.112;11.662;2023-05-10T10:20:42;95108.81;;;22.16
34310;BMP280;61664;48.112;11.662;2023-05-10T10:23:09;95119.72;;;22.09
34310;BMP280;61664;48.112;11.662;2023-05-10T10:25:38;95099.06;;;21.91
34310;BMP280;61664;48.112;11.662;2023-05-10T10:34:28;95110.81;;;21.70
34310;BMP280;61664;48.112;11.662;2023-05-10T10:36:57;95107.38;;;21.77
34310;BMP280;61664;48.112;11.662;2023-05-10T10:39:24;95106.88;;;21.79
34310;BMP280;61664;48.112;11.662;2023-05-10T10:41:57;95094.31;;;21.68
34310;BMP280;61664;48.112;11.662;2023-05-10T10:47:03;95110.06;;;21.55
34310;BMP280;61664;48.112;11.662;2023-05-10T10:52:28;95094.28;;;20.87
34310;BMP280;61664;48.112;11.662;2023-05-10T10:55:03;95097.34;;;20.83
34310;BMP280;61664;48.112;11.662;2023-05-10T10:57:53;95081.22;;;20.85
34310;BMP280;61664;48.112;11.662;2023-05-10T11:00:32;95085.22;;;20.84
34310;BMP280;61664;48.112;11.662;2023-05-10T11:03:10;95089.38;;;20.85
34310;BMP280;61664;48.112;11.662;2023-05-10T11:05:43;95091.84;;;20.76
34310;BMP280;61664;48.112;11.662;2023-05-10T11:08:27;95086.56;;;20.62
34310;BMP280;61664;48.112;11.662;2023-05-10T11:19:06;95088.41;;;20.11
34310;BMP280;61664;48.112;11.662;2023-05-10T11:21:51;95096.81;;;20.00
34310;BMP280;61664;48.112;11.662;2023-05-10T11:24:27;95097.56;;;19.87
34310;BMP280;61664;48.112;11.662;2023-05-10T11:26:55;95097.78;;;19.68
34310;BMP280;61664;48.112;11.662;2023-05-10T11:29:22;95099.34;;;19.43
34310;BMP280;61664;48.112;11.662;2023-05-10T11:31:51;95095.03;;;19.14
34310;BMP280;61664;48.112;11.662;2023-05-10T11:34:26;95101.91;;;18.88
34310;BMP280;61664;48.112;11.662;2023-05-10T11:36:55;95087.47;;;18.59
34310;BMP280;61664;48.112;11.662;2023-05-10T11:39:27;95100.88;;;18.52
34310;BMP280;61664;48.112;11.662;2023-05-10T11:41:54;95104.81;;;18.38
34310;BMP280;61664;48.112;11.662;2023-05-10T11:44:22;95097.16;;;18.10
34310;BMP280;61664;48.112;11.662;2023-05-10T11:46:49;95117.28;;;17.82
34310;BMP280;61664;48.112;11.662;2023-05-10T11:49:16;95113.78;;;17.50
34310;BMP280;61664;48.112;11.662;2023-05-10T11:51:43;95128.59;;;17.25
34310;BMP280;61664;48.112;11.662;2023-05-10T11:54:13;95107.16;;;16.89
34310;BMP280;61664;48.112;11.662;2023-05-10T11:56:40;95115.38;;;16.78
34310;BMP280;61664;48.112;11.662;2023-05-10T11:59:07;95114.34;;;16.57
34310;BMP280;61664;48.112;11.662;2023-05-10T12:01:35;95145.34;;;16.44
34310;BMP280;61664;48.112;11.662;2023-05-10T12:04:03;95134.31;;;16.13
34310;BMP280;61664;48.112;11.662;2023-05-10T12:09:23;95164.09;;;15.90
34310;BMP280;61664;48.112;11.662;2023-05-10T12:12:05;95151.75;;;15.70
34310;BMP280;61664;48.112;11.662;2023-05-10T12:14:35;95175.94;;;15.76
34310;BMP280;61664;48.112;11.662;2023-05-10T12:17:02;95177.41;;;15.77
34310;BMP280;61664;48.112;11.662;2023-05-10T12:19:37;95183.53;;;15.78
34310;BMP280;61664;48.112;11.662;2023-05-10T12:22:06;95183.31;;;15.70
34310;BMP280;61664;48.112;11.662;2023-05-10T12:24:36;95187.50;;;15.65
34310;BMP280;61664;48.112;11.662;2023-05-10T12:27:05;95174.34;;;15.56
34310;BMP280;61664;48.112;11.662;2023-05-10T12:29:34;95184.81;;;15.60
34310;BMP280;61664;48.112;11.662;2023-05-10T12:32:02;95188.53;;;15.57
34310;BMP280;61664;48.112;11.662;2023-05-10T12:34:35;95192.94;;;15.54
34310;BMP280;61664;48.112;11.662;2023-05-10T12:37:04;95194.41;;;15.55
34310;BMP280;61664;48.112;11.662;2023-05-10T12:39:44;95193.94;;;15.51
34310;BMP280;61664;48.112;11.662;2023-05-10T12:42:12;95190.53;;;15.45
34310;BMP280;61664;48.112;11.662;2023-05-10T12:44:40;95188.09;;;15.36
34310;BMP280;61664;48.112;11.662;2023-05-10T12:47:07;95194.94;;;15.37
34310;BMP280;61664;48.112;11.662;2023-05-10T12:49:34;95179.56;;;15.32
34310;BMP280;61664;48.112;11.662;2023-05-10T12:52:01;95203.25;;;15.45
34310;BMP280;61664;48.112;11.662;2023-05-10T12:54:28;95194.47;;;15.38
34310;BMP280;61664;48.112;11.662;2023-05-10T12:56:55;95197.34;;;15.46
34310;BMP280;61664;48.112;11.662;2023-05-10T12:59:21;95196.66;;;15.46
34310;BMP280;61664;48.112;11.662;2023-05-10T13:01:49;95189.28;;;15.46
34310;BMP280;61664;48.112;11.662;2023-05-10T13:04:16;95187.09;;;15.45
34310;BMP280;61664;48.112;11.662;2023-05-10T13:06:43;95204.00;;;15.51
34310;BMP280;61664;48.112;11.662;2023-05-10T13:09:10;95188.06;;;15.47
34310;BMP280;61664;48.112;11.662;2023-05-10T13:11:37;95201.25;;;15.56
34310;BMP280;61664;48.112;11.662;2023-05-10T13:14:04;95201.25;;;15.56
34310;BMP280;61664;48.112;11.662;2023-05-10T13:16:31;95205.38;;;15.57
34310;BMP280;61664;48.112;11.662;2023-05-10T13:18:58;95183.94;;;15.41
34310;BMP280;61664;48.112;11.662;2023-05-10T13:21:25;95194.91;;;15.48
34310;BMP280;61664;48.112;11.662;2023-05-10T13:23:53;95201.25;;;15.56
34310;BMP280;61664;48.112;11.662;2023-05-10T13:26:20;95207.59;;;15.64
34310;BMP280;61664;48.112;11.662;2023-05-10T13:28:47;95212.47;;;15.71
34310;BMP280;61664;48.112;11.662;2023-05-10T13:31:16;95209.97;;;15.73
34310;BMP280;61664;48.112;11.662;2023-05-10T13:33:43;95210.72;;;15.74
34310;BMP280;61664;48.112;11.662;2023-05-10T13:36:10;95197.25;;;15.74
34310;BMP280;61664;48.112;11.662;2023-05-10T13:38:36;95184.31;;;15.67
34310;BMP280;61664;48.112;11.662;2023-05-10T13:41:04;95199.16;;;15.85
34310;BMP280;61664;48.112;11.662;2023-05-10T13:43:31;95195.47;;;15.88
34310;BMP280;61664;48.112;11.662;2023-05-10T13:45:59;95205.94;;;15.97
34310;BMP280;61664;48.112;11.662;2023-05-10T13:48:26;95195.22;;;15.86
34310;BMP280;61664;48.112;11.662;2023-05-10T13:50:53;95184.31;;;15.72
34310;BMP280;61664;48.112;11.662;2023-05-10T13:53:22;95202.31;;;15.89
34310;BMP280;61664;48.112;11.662;2023-05-10T13:55:50;95199.38;;;15.92
34310;BMP280;61664;48.112;11.662;2023-05-10T13:58:17;95186.22;;;15.78
34310;BMP280;61664;48.112;11.662;2023-05-10T14:00:56;95196.25;;;15.83
34310;BMP280;61664;48.112;11.662;2023-05-10T14:03:22;95197.94;;;15.80
34310;BMP280;61664;48.112;11.662;2023-05-10T14:05:49;95165.50;;;15.61
34310;BMP280;61664;48.112;11.662;2023-05-10T14:08:17;95161.09;;;15.58
34310;BMP280;61664;48.112;11.662;2023-05-10T14:10:46;95189.41;;;15.82
34310;BMP280;61664;48.112;11.662;2023-05-10T14:13:13;95197.44;;;15.87
34310;BMP280;61664;48.112;11.662;2023-05-10T14:15:40;95164.03;;;15.60
34310;BMP280;61664;48.112;11.662;2023-05-10T14:18:07;95187.72;;;15.73
34310;BMP280;61664;48.112;11.662;2023-05-10T14:20:34;95195.78;;;15.79
34310;BMP280;61664;48.112;11.662;2023-05-10T14:23:01;95190.91;;;15.71
34310;BMP280;61664;48.112;11.662;2023-05-10T14:25:28;95195.09;;;15.72
34310;BMP280;61664;48.112;11.662;2023-05-10T14:27:55;95197.53;;;15.70
34310;BMP280;61664;48.112;11.662;2023-05-10T14:30:21;95168.72;;;15.54
34310;BMP280;61664;48.112;11.662;2023-05-10T14:32:48;95172.59;;;15.59
34310;BMP280;61664;48.112;11.662;2023-05-10T14:35:15;95185.03;;;15.73
34310;BMP280;61664;48.112;11.662;2023-05-10T14:37:45;95182.06;;;15.77
34310;BMP280;61664;48.112;11.662;2023-05-10T14:40:12;95179.84;;;15.81
34310;BMP280;61664;48.112;11.662;2023-05-10T14:42:42;95182.53;;;15.81
34310;BMP280;61664;48.112;11.662;2023-05-10T14:45:10;95185.94;;;15.87
34310;BMP280;61664;48.112;11.662;2023-05-10T14:47:37;95181.56;;;15.84
34310;BMP280;61664;48.112;11.662;2023-05-10T14:50:06;95178.63;;;15.76
34310;BMP280;61664;48.112;11.662;2023-05-10T14:52:33;95181.38;;;15.70
34310;BMP280;61664;48.112;11.662;2023-05-10T14:55:00;95189.69;;;15.72
34310;BMP280;61664;48.112;11.662;2023-05-10T14:57:28;95179.94;;;15.58